BRS weather

Bristol Airport
Bristol, England, United Kingdom

Public forecast

Using degrees Celsius for public forecast. Weather courtesy of forecast.io.

METAR (pilot weather report)

Retrieved 2019/03/23 09:50 UTC (17 minutes ago):

EGGD 230950Z AUTO 04010KT 9999 NCD 09/04 Q1032

TAF (pilot weather forecast)

Retrieved 2019/03/23 06:00 UTC (4 hours ago):

TAF EGGD 230500Z 2306/2406 04010KT 9999 SCT030 BECMG 2400/2403 VRB03KT PROB30 TEMPO 2402/2406 7000